sensor_id;sensor_type;location;lat;lon;timestamp;P1;durP1;ratioP1;P2;durP2;ratioP2
36575;SDS011;45700;50.930;5.168;2022-12-18T00:03:41;46.55;;;14.48;;
36575;SDS011;45700;50.930;5.168;2022-12-18T00:07:42;41.33;;;13.23;;
36575;SDS011;45700;50.930;5.168;2022-12-18T00:11:43;50.70;;;14.00;;
36575;SDS011;45700;50.930;5.168;2022-12-18T00:15:44;47.97;;;14.90;;
36575;SDS011;45700;50.930;5.168;2022-12-18T00:19:45;46.03;;;14.75;;
36575;SDS011;45700;50.930;5.168;2022-12-18T00:23:47;47.70;;;14.13;;
36575;SDS011;45700;50.930;5.168;2022-12-18T00:27:48;57.15;;;16.88;;
36575;SDS011;45700;50.930;5.168;2022-12-18T00:31:49;49.83;;;16.10;;
36575;SDS011;45700;50.930;5.168;2022-12-18T00:35:50;50.97;;;16.00;;
36575;SDS011;45700;50.930;5.168;2022-12-18T00:39:51;55.10;;;15.63;;
36575;SDS011;45700;50.930;5.168;2022-12-18T00:43:52;56.25;;;15.73;;
36575;SDS011;45700;50.930;5.168;2022-12-18T00:47:53;59.53;;;18.50;;
36575;SDS011;45700;50.930;5.168;2022-12-18T00:51:54;58.95;;;17.67;;
36575;SDS011;45700;50.930;5.168;2022-12-18T00:55:55;62.28;;;18.85;;
36575;SDS011;45700;50.930;5.168;2022-12-18T00:59:56;95.60;;;23.10;;
36575;SDS011;45700;50.930;5.168;2022-12-18T01:03:58;70.03;;;20.08;;
36575;SDS011;45700;50.930;5.168;2022-12-18T01:07:59;69.03;;;19.20;;
36575;SDS011;45700;50.930;5.168;2022-12-18T01:12:00;62.85;;;17.77;;
36575;SDS011;45700;50.930;5.168;2022-12-18T01:16:01;57.63;;;15.75;;
36575;SDS011;45700;50.930;5.168;2022-12-18T01:20:02;61.40;;;18.45;;
36575;SDS011;45700;50.930;5.168;2022-12-18T01:24:04;80.43;;;20.17;;
36575;SDS011;45700;50.930;5.168;2022-12-18T01:28:05;54.67;;;14.30;;
36575;SDS011;45700;50.930;5.168;2022-12-18T01:32:06;42.67;;;13.85;;
36575;SDS011;45700;50.930;5.168;2022-12-18T01:36:07;53.17;;;14.40;;
36575;SDS011;45700;50.930;5.168;2022-12-18T01:40:09;51.70;;;14.18;;
36575;SDS011;45700;50.930;5.168;2022-12-18T01:48:31;31.48;;;11.57;;
36575;SDS011;45700;50.930;5.168;2022-12-18T01:52:32;58.83;;;14.07;;
36575;SDS011;45700;50.930;5.168;2022-12-18T01:56:33;43.17;;;12.60;;
36575;SDS011;45700;50.930;5.168;2022-12-18T02:00:34;66.90;;;17.15;;
36575;SDS011;45700;50.930;5.168;2022-12-18T02:04:35;55.17;;;15.63;;
36575;SDS011;45700;50.930;5.168;2022-12-18T02:08:58;44.15;;;13.73;;
36575;SDS011;45700;50.930;5.168;2022-12-18T02:13:03;55.40;;;13.57;;
36575;SDS011;45700;50.930;5.168;2022-12-18T02:17:07;46.83;;;14.02;;
36575;SDS011;45700;50.930;5.168;2022-12-18T02:33:38;53.78;;;14.27;;
36575;SDS011;45700;50.930;5.168;2022-12-18T02:37:42;53.00;;;14.18;;
36575;SDS011;45700;50.930;5.168;2022-12-18T02:41:44;44.60;;;13.63;;
36575;SDS011;45700;50.930;5.168;2022-12-18T02:45:46;46.05;;;12.75;;
36575;SDS011;45700;50.930;5.168;2022-12-18T02:53:58;37.30;;;12.23;;
36575;SDS011;45700;50.930;5.168;2022-12-18T02:58:19;40.30;;;12.15;;
36575;SDS011;45700;50.930;5.168;2022-12-18T03:06:40;39.63;;;13.02;;
36575;SDS011;45700;50.930;5.168;2022-12-18T03:10:44;40.75;;;13.23;;
36575;SDS011;45700;50.930;5.168;2022-12-18T03:14:46;54.60;;;14.05;;
36575;SDS011;45700;50.930;5.168;2022-12-18T03:18:58;44.22;;;13.07;;
36575;SDS011;45700;50.930;5.168;2022-12-18T03:23:00;41.35;;;12.48;;
36575;SDS011;45700;50.930;5.168;2022-12-18T03:27:04;34.55;;;10.98;;
36575;SDS011;45700;50.930;5.168;2022-12-18T03:31:07;41.10;;;12.02;;
36575;SDS011;45700;50.930;5.168;2022-12-18T03:35:09;43.28;;;12.07;;
36575;SDS011;45700;50.930;5.168;2022-12-18T03:39:12;36.38;;;11.70;;
36575;SDS011;45700;50.930;5.168;2022-12-18T03:43:18;42.55;;;11.60;;
36575;SDS011;45700;50.930;5.168;2022-12-18T03:51:33;39.38;;;11.35;;
36575;SDS011;45700;50.930;5.168;2022-12-18T03:55:38;46.28;;;11.82;;
36575;SDS011;45700;50.930;5.168;2022-12-18T03:59:40;50.80;;;15.02;;
36575;SDS011;45700;50.930;5.168;2022-12-18T04:03:42;33.35;;;11.88;;
36575;SDS011;45700;50.930;5.168;2022-12-18T04:07:44;51.70;;;13.70;;
36575;SDS011;45700;50.930;5.168;2022-12-18T04:11:46;42.78;;;12.48;;
36575;SDS011;45700;50.930;5.168;2022-12-18T04:15:47;37.00;;;11.18;;
36575;SDS011;45700;50.930;5.168;2022-12-18T04:19:48;41.38;;;10.63;;
36575;SDS011;45700;50.930;5.168;2022-12-18T04:23:49;29.02;;;9.90;;
36575;SDS011;45700;50.930;5.168;2022-12-18T04:27:50;37.15;;;11.90;;
36575;SDS011;45700;50.930;5.168;2022-12-18T04:31:51;30.33;;;10.30;;
36575;SDS011;45700;50.930;5.168;2022-12-18T04:35:52;25.48;;;8.32;;
36575;SDS011;45700;50.930;5.168;2022-12-18T04:39:53;29.75;;;8.73;;
36575;SDS011;45700;50.930;5.168;2022-12-18T04:43:54;26.55;;;9.30;;
36575;SDS011;45700;50.930;5.168;2022-12-18T04:47:56;25.85;;;9.07;;
36575;SDS011;45700;50.930;5.168;2022-12-18T04:51:57;30.73;;;9.93;;
36575;SDS011;45700;50.930;5.168;2022-12-18T04:56:09;32.72;;;9.65;;
36575;SDS011;45700;50.930;5.168;2022-12-18T05:00:10;25.55;;;8.65;;
36575;SDS011;45700;50.930;5.168;2022-12-18T05:04:12;27.25;;;8.30;;
36575;SDS011;45700;50.930;5.168;2022-12-18T05:08:13;34.20;;;8.95;;
36575;SDS011;45700;50.930;5.168;2022-12-18T05:12:14;25.05;;;8.25;;
36575;SDS011;45700;50.930;5.168;2022-12-18T05:16:15;34.53;;;10.13;;
36575;SDS011;45700;50.930;5.168;2022-12-18T05:20:16;38.97;;;10.30;;
36575;SDS011;45700;50.930;5.168;2022-12-18T05:24:18;30.60;;;9.00;;
36575;SDS011;45700;50.930;5.168;2022-12-18T05:28:19;28.38;;;8.68;;
36575;SDS011;45700;50.930;5.168;2022-12-18T05:32:20;27.23;;;8.80;;
36575;SDS011;45700;50.930;5.168;2022-12-18T05:36:21;35.83;;;9.20;;
36575;SDS011;45700;50.930;5.168;2022-12-18T05:40:22;26.33;;;9.30;;
36575;SDS011;45700;50.930;5.168;2022-12-18T05:44:23;21.73;;;6.88;;
36575;SDS011;45700;50.930;5.168;2022-12-18T05:48:24;29.35;;;9.55;;
36575;SDS011;45700;50.930;5.168;2022-12-18T05:52:25;30.63;;;8.48;;
36575;SDS011;45700;50.930;5.168;2022-12-18T05:56:26;23.48;;;8.65;;
36575;SDS011;45700;50.930;5.168;2022-12-18T06:00:27;18.48;;;7.53;;
36575;SDS011;45700;50.930;5.168;2022-12-18T06:04:28;31.83;;;10.60;;
36575;SDS011;45700;50.930;5.168;2022-12-18T06:08:29;27.13;;;9.20;;
36575;SDS011;45700;50.930;5.168;2022-12-18T06:12:30;44.03;;;11.82;;
36575;SDS011;45700;50.930;5.168;2022-12-18T06:16:33;21.80;;;8.70;;
36575;SDS011;45700;50.930;5.168;2022-12-18T06:20:34;30.88;;;9.68;;
36575;SDS011;45700;50.930;5.168;2022-12-18T06:24:36;30.35;;;9.57;;
36575;SDS011;45700;50.930;5.168;2022-12-18T06:28:38;23.27;;;8.30;;
36575;SDS011;45700;50.930;5.168;2022-12-18T06:32:39;27.52;;;8.75;;
36575;SDS011;45700;50.930;5.168;2022-12-18T06:36:40;26.10;;;9.00;;
36575;SDS011;45700;50.930;5.168;2022-12-18T06:40:41;23.15;;;8.35;;
36575;SDS011;45700;50.930;5.168;2022-12-18T06:44:42;23.17;;;9.55;;
36575;SDS011;45700;50.930;5.168;2022-12-18T06:48:46;21.93;;;8.00;;
36575;SDS011;45700;50.930;5.168;2022-12-18T06:52:47;24.13;;;10.33;;
36575;SDS011;45700;50.930;5.168;2022-12-18T06:56:48;23.43;;;7.53;;
36575;SDS011;45700;50.930;5.168;2022-12-18T07:00:49;23.77;;;7.80;;
36575;SDS011;45700;50.930;5.168;2022-12-18T07:04:50;20.47;;;9.83;;
36575;SDS011;45700;50.930;5.168;2022-12-18T07:08:51;30.53;;;10.83;;
36575;SDS011;45700;50.930;5.168;2022-12-18T07:12:53;16.80;;;6.77;;
36575;SDS011;45700;50.930;5.168;2022-12-18T07:16:54;24.67;;;9.97;;
36575;SDS011;45700;50.930;5.168;2022-12-18T07:20:55;38.00;;;10.70;;
36575;SDS011;45700;50.930;5.168;2022-12-18T07:24:56;30.30;;;8.77;;
36575;SDS011;45700;50.930;5.168;2022-12-18T07:28:58;30.13;;;11.20;;
36575;SDS011;45700;50.930;5.168;2022-12-18T07:32:59;26.73;;;9.63;;
36575;SDS011;45700;50.930;5.168;2022-12-18T07:37:00;23.13;;;7.93;;
36575;SDS011;45700;50.930;5.168;2022-12-18T07:41:02;20.47;;;7.87;;
36575;SDS011;45700;50.930;5.168;2022-12-18T07:45:03;14.47;;;6.53;;
36575;SDS011;45700;50.930;5.168;2022-12-18T07:49:04;20.60;;;6.80;;
36575;SDS011;45700;50.930;5.168;2022-12-18T07:53:05;17.97;;;6.67;;
36575;SDS011;45700;50.930;5.168;2022-12-18T07:57:06;18.50;;;7.50;;
36575;SDS011;45700;50.930;5.168;2022-12-18T08:01:11;19.73;;;7.60;;
36575;SDS011;45700;50.930;5.168;2022-12-18T08:05:12;12.13;;;6.03;;
36575;SDS011;45700;50.930;5.168;2022-12-18T08:09:13;11.93;;;6.07;;
36575;SDS011;45700;50.930;5.168;2022-12-18T08:13:14;14.10;;;7.27;;
36575;SDS011;45700;50.930;5.168;2022-12-18T08:17:15;22.17;;;5.80;;
36575;SDS011;45700;50.930;5.168;2022-12-18T08:21:26;15.77;;;5.57;;
36575;SDS011;45700;50.930;5.168;2022-12-18T08:25:27;13.73;;;7.50;;
36575;SDS011;45700;50.930;5.168;2022-12-18T08:29:28;16.30;;;5.47;;
36575;SDS011;45700;50.930;5.168;2022-12-18T08:33:30;16.90;;;6.53;;
36575;SDS011;45700;50.930;5.168;2022-12-18T08:37:31;14.53;;;5.43;;
36575;SDS011;45700;50.930;5.168;2022-12-18T08:41:32;13.57;;;5.37;;
36575;SDS011;45700;50.930;5.168;2022-12-18T08:45:33;15.33;;;6.03;;
36575;SDS011;45700;50.930;5.168;2022-12-18T08:49:34;14.00;;;5.70;;
36575;SDS011;45700;50.930;5.168;2022-12-18T08:53:36;15.80;;;5.13;;
36575;SDS011;45700;50.930;5.168;2022-12-18T08:57:37;11.23;;;4.43;;
36575;SDS011;45700;50.930;5.168;2022-12-18T09:01:38;9.97;;;4.47;;
36575;SDS011;45700;50.930;5.168;2022-12-18T09:05:39;6.80;;;4.53;;
36575;SDS011;45700;50.930;5.168;2022-12-18T09:09:40;15.97;;;6.10;;
36575;SDS011;45700;50.930;5.168;2022-12-18T09:13:41;14.32;;;5.20;;
36575;SDS011;45700;50.930;5.168;2022-12-18T09:17:42;13.75;;;5.38;;
36575;SDS011;45700;50.930;5.168;2022-12-18T09:21:43;6.38;;;3.63;;
36575;SDS011;45700;50.930;5.168;2022-12-18T09:25:44;14.53;;;5.03;;
36575;SDS011;45700;50.930;5.168;2022-12-18T09:29:45;5.20;;;3.83;;
36575;SDS011;45700;50.930;5.168;2022-12-18T09:33:46;8.97;;;3.80;;
36575;SDS011;45700;50.930;5.168;2022-12-18T09:37:47;6.97;;;4.55;;
36575;SDS011;45700;50.930;5.168;2022-12-18T09:45:51;6.00;;;2.67;;
36575;SDS011;45700;50.930;5.168;2022-12-18T09:49:55;7.50;;;3.63;;
36575;SDS011;45700;50.930;5.168;2022-12-18T09:53:58;2.22;;;1.27;;
36575;SDS011;45700;50.930;5.168;2022-12-18T09:58:02;4.20;;;2.70;;
36575;SDS011;45700;50.930;5.168;2022-12-18T10:02:16;3.50;;;2.42;;
36575;SDS011;45700;50.930;5.168;2022-12-18T10:06:21;5.38;;;2.28;;
36575;SDS011;45700;50.930;5.168;2022-12-18T10:14:36;1.38;;;1.15;;
36575;SDS011;45700;50.930;5.168;2022-12-18T10:27:10;0.83;;;0.73;;
36575;SDS011;45700;50.930;5.168;2022-12-18T10:31:19;2.13;;;2.03;;
36575;SDS011;45700;50.930;5.168;2022-12-18T10:35:21;3.75;;;2.40;;
36575;SDS011;45700;50.930;5.168;2022-12-18T10:39:23;0.10;;;0.10;;
36575;SDS011;45700;50.930;5.168;2022-12-18T10:43:28;1.13;;;1.13;;
36575;SDS011;45700;50.930;5.168;2022-12-18T10:47:30;0.95;;;0.95;;
36575;SDS011;45700;50.930;5.168;2022-12-18T10:51:32;20.90;;;3.65;;
36575;SDS011;45700;50.930;5.168;2022-12-18T10:55:34;3.70;;;2.33;;
36575;SDS011;45700;50.930;5.168;2022-12-18T10:59:49;2.00;;;1.88;;
36575;SDS011;45700;50.930;5.168;2022-12-18T11:07:51;11.50;;;2.63;;
36575;SDS011;45700;50.930;5.168;2022-12-18T11:11:54;5.43;;;3.17;;
36575;SDS011;45700;50.930;5.168;2022-12-18T11:15:56;5.65;;;4.40;;
36575;SDS011;45700;50.930;5.168;2022-12-18T11:19:58;12.95;;;4.78;;
36575;SDS011;45700;50.930;5.168;2022-12-18T11:23:59;7.38;;;4.55;;
36575;SDS011;45700;50.930;5.168;2022-12-18T11:28:02;9.50;;;5.28;;
36575;SDS011;45700;50.930;5.168;2022-12-18T11:32:18;4.97;;;2.58;;
36575;SDS011;45700;50.930;5.168;2022-12-18T11:36:21;4.30;;;3.83;;
36575;SDS011;45700;50.930;5.168;2022-12-18T11:45:01;11.60;;;4.50;;
36575;SDS011;45700;50.930;5.168;2022-12-18T11:53:14;8.65;;;4.75;;
36575;SDS011;45700;50.930;5.168;2022-12-18T12:01:29;18.42;;;4.90;;
36575;SDS011;45700;50.930;5.168;2022-12-18T12:05:40;6.22;;;4.05;;
36575;SDS011;45700;50.930;5.168;2022-12-18T12:39:40;13.45;;;5.82;;
36575;SDS011;45700;50.930;5.168;2022-12-18T12:43:44;13.05;;;6.47;;
36575;SDS011;45700;50.930;5.168;2022-12-18T12:47:47;8.38;;;4.72;;
36575;SDS011;45700;50.930;5.168;2022-12-18T12:55:59;15.27;;;7.47;;
36575;SDS011;45700;50.930;5.168;2022-12-18T13:00:05;7.63;;;5.00;;
36575;SDS011;45700;50.930;5.168;2022-12-18T13:08:22;15.73;;;6.80;;
36575;SDS011;45700;50.930;5.168;2022-12-18T13:12:24;9.55;;;6.40;;
36575;SDS011;45700;50.930;5.168;2022-12-18T13:24:54;12.98;;;6.82;;
36575;SDS011;45700;50.930;5.168;2022-12-18T13:28:56;15.07;;;7.47;;
36575;SDS011;45700;50.930;5.168;2022-12-18T13:41:33;16.15;;;8.90;;
36575;SDS011;45700;50.930;5.168;2022-12-18T13:45:39;18.02;;;8.82;;
36575;SDS011;45700;50.930;5.168;2022-12-18T13:49:41;22.33;;;10.70;;
36575;SDS011;45700;50.930;5.168;2022-12-18T13:53:44;12.07;;;7.18;;
36575;SDS011;45700;50.930;5.168;2022-12-18T13:57:47;9.88;;;5.95;;
36575;SDS011;45700;50.930;5.168;2022-12-18T14:05:53;17.63;;;8.27;;
36575;SDS011;45700;50.930;5.168;2022-12-18T14:09:55;21.83;;;8.02;;
36575;SDS011;45700;50.930;5.168;2022-12-18T14:13:57;10.43;;;6.00;;
36575;SDS011;45700;50.930;5.168;2022-12-18T14:18:41;13.82;;;6.97;;
36575;SDS011;45700;50.930;5.168;2022-12-18T14:22:23;22.73;;;9.90;;
36575;SDS011;45700;50.930;5.168;2022-12-18T14:26:30;12.20;;;6.38;;
36575;SDS011;45700;50.930;5.168;2022-12-18T14:30:33;16.23;;;8.18;;
36575;SDS011;45700;50.930;5.168;2022-12-18T14:34:35;13.38;;;5.50;;
36575;SDS011;45700;50.930;5.168;2022-12-18T14:38:37;19.58;;;8.88;;
36575;SDS011;45700;50.930;5.168;2022-12-18T14:42:38;13.25;;;6.30;;
36575;SDS011;45700;50.930;5.168;2022-12-18T14:46:39;9.48;;;7.75;;
36575;SDS011;45700;50.930;5.168;2022-12-18T14:50:42;14.23;;;8.52;;
36575;SDS011;45700;50.930;5.168;2022-12-18T14:54:45;25.67;;;12.32;;
36575;SDS011;45700;50.930;5.168;2022-12-18T15:02:54;35.67;;;13.02;;
36575;SDS011;45700;50.930;5.168;2022-12-18T15:07:07;27.00;;;11.80;;
36575;SDS011;45700;50.930;5.168;2022-12-18T15:11:25;24.13;;;11.98;;
36575;SDS011;45700;50.930;5.168;2022-12-18T15:19:39;19.55;;;8.93;;
36575;SDS011;45700;50.930;5.168;2022-12-18T15:27:45;23.05;;;10.52;;
36575;SDS011;45700;50.930;5.168;2022-12-18T15:32:04;28.38;;;11.05;;
36575;SDS011;45700;50.930;5.168;2022-12-18T15:36:08;16.00;;;8.65;;
36575;SDS011;45700;50.930;5.168;2022-12-18T15:40:16;19.77;;;9.68;;
36575;SDS011;45700;50.930;5.168;2022-12-18T15:44:23;39.63;;;11.33;;
36575;SDS011;45700;50.930;5.168;2022-12-18T15:48:25;12.05;;;7.85;;
36575;SDS011;45700;50.930;5.168;2022-12-18T15:52:26;23.70;;;7.72;;
36575;SDS011;45700;50.930;5.168;2022-12-18T15:56:27;13.75;;;7.60;;
36575;SDS011;45700;50.930;5.168;2022-12-18T16:04:48;20.95;;;8.10;;
36575;SDS011;45700;50.930;5.168;2022-12-18T16:08:49;24.10;;;11.77;;
36575;SDS011;45700;50.930;5.168;2022-12-18T16:12:50;18.08;;;11.38;;
36575;SDS011;45700;50.930;5.168;2022-12-18T16:16:55;17.77;;;8.98;;
36575;SDS011;45700;50.930;5.168;2022-12-18T16:20:56;18.73;;;8.98;;
36575;SDS011;45700;50.930;5.168;2022-12-18T16:24:57;29.00;;;10.25;;
36575;SDS011;45700;50.930;5.168;2022-12-18T16:28:58;20.10;;;8.93;;
36575;SDS011;45700;50.930;5.168;2022-12-18T16:32:59;17.92;;;8.32;;
36575;SDS011;45700;50.930;5.168;2022-12-18T16:37:02;20.52;;;9.88;;
36575;SDS011;45700;50.930;5.168;2022-12-18T16:41:07;16.30;;;7.65;;
36575;SDS011;45700;50.930;5.168;2022-12-18T16:45:31;10.98;;;5.35;;
36575;SDS011;45700;50.930;5.168;2022-12-18T16:49:32;12.82;;;6.18;;
36575;SDS011;45700;50.930;5.168;2022-12-18T16:53:34;12.25;;;5.60;;
36575;SDS011;45700;50.930;5.168;2022-12-18T16:57:35;11.60;;;4.88;;
36575;SDS011;45700;50.930;5.168;2022-12-18T17:01:36;8.68;;;5.45;;
36575;SDS011;45700;50.930;5.168;2022-12-18T17:05:37;6.13;;;4.63;;
36575;SDS011;45700;50.930;5.168;2022-12-18T17:09:38;8.02;;;5.82;;
36575;SDS011;45700;50.930;5.168;2022-12-18T17:13:39;10.85;;;4.35;;
36575;SDS011;45700;50.930;5.168;2022-12-18T17:17:40;20.95;;;6.30;;
36575;SDS011;45700;50.930;5.168;2022-12-18T17:21:42;13.23;;;5.65;;
36575;SDS011;45700;50.930;5.168;2022-12-18T17:25:43;8.88;;;6.30;;
36575;SDS011;45700;50.930;5.168;2022-12-18T17:29:44;6.88;;;4.90;;
36575;SDS011;45700;50.930;5.168;2022-12-18T17:33:46;7.85;;;5.13;;
36575;SDS011;45700;50.930;5.168;2022-12-18T17:37:47;12.45;;;5.80;;
36575;SDS011;45700;50.930;5.168;2022-12-18T17:41:48;15.20;;;6.25;;
36575;SDS011;45700;50.930;5.168;2022-12-18T17:45:49;13.90;;;5.47;;
36575;SDS011;45700;50.930;5.168;2022-12-18T17:49:50;8.52;;;3.97;;
36575;SDS011;45700;50.930;5.168;2022-12-18T17:53:51;13.20;;;4.78;;
36575;SDS011;45700;50.930;5.168;2022-12-18T17:57:52;11.32;;;6.15;;
36575;SDS011;45700;50.930;5.168;2022-12-18T18:01:54;7.78;;;5.30;;
36575;SDS011;45700;50.930;5.168;2022-12-18T18:05:55;5.13;;;4.43;;
36575;SDS011;45700;50.930;5.168;2022-12-18T18:09:56;6.38;;;4.00;;
36575;SDS011;45700;50.930;5.168;2022-12-18T18:13:57;6.18;;;3.92;;
36575;SDS011;45700;50.930;5.168;2022-12-18T18:18:03;5.55;;;3.83;;
36575;SDS011;45700;50.930;5.168;2022-12-18T18:22:04;4.18;;;3.75;;
36575;SDS011;45700;50.930;5.168;2022-12-18T18:26:05;2.17;;;1.70;;
36575;SDS011;45700;50.930;5.168;2022-12-18T18:30:07;3.30;;;2.15;;
36575;SDS011;45700;50.930;5.168;2022-12-18T18:34:21;6.60;;;2.92;;
36575;SDS011;45700;50.930;5.168;2022-12-18T18:38:22;3.20;;;2.70;;
36575;SDS011;45700;50.930;5.168;2022-12-18T18:42:23;7.40;;;3.40;;
36575;SDS011;45700;50.930;5.168;2022-12-18T18:47:57;8.77;;;3.60;;
36575;SDS011;45700;50.930;5.168;2022-12-18T18:51:58;8.23;;;2.33;;
36575;SDS011;45700;50.930;5.168;2022-12-18T18:55:59;8.55;;;3.15;;
36575;SDS011;45700;50.930;5.168;2022-12-18T19:00:00;1.73;;;1.40;;
36575;SDS011;45700;50.930;5.168;2022-12-18T19:04:01;12.48;;;4.38;;
36575;SDS011;45700;50.930;5.168;2022-12-18T19:08:02;4.05;;;3.70;;
36575;SDS011;45700;50.930;5.168;2022-12-18T19:12:03;9.05;;;4.45;;
36575;SDS011;45700;50.930;5.168;2022-12-18T19:16:23;6.45;;;2.38;;
36575;SDS011;45700;50.930;5.168;2022-12-18T19:20:24;2.88;;;1.42;;
36575;SDS011;45700;50.930;5.168;2022-12-18T19:24:25;1.73;;;1.65;;
36575;SDS011;45700;50.930;5.168;2022-12-18T19:28:26;7.10;;;5.15;;
36575;SDS011;45700;50.930;5.168;2022-12-18T19:32:27;11.13;;;4.05;;
36575;SDS011;45700;50.930;5.168;2022-12-18T19:36:29;4.53;;;3.92;;
36575;SDS011;45700;50.930;5.168;2022-12-18T19:40:30;23.30;;;3.80;;
36575;SDS011;45700;50.930;5.168;2022-12-18T19:44:31;13.82;;;4.53;;
36575;SDS011;45700;50.930;5.168;2022-12-18T19:48:33;14.30;;;4.22;;
36575;SDS011;45700;50.930;5.168;2022-12-18T19:52:34;4.55;;;3.28;;
36575;SDS011;45700;50.930;5.168;2022-12-18T19:56:35;13.68;;;4.45;;
36575;SDS011;45700;50.930;5.168;2022-12-18T20:00:36;7.05;;;4.93;;
36575;SDS011;45700;50.930;5.168;2022-12-18T20:04:37;10.10;;;3.35;;
36575;SDS011;45700;50.930;5.168;2022-12-18T20:08:38;1.65;;;1.27;;
36575;SDS011;45700;50.930;5.168;2022-12-18T20:12:39;14.20;;;4.03;;
36575;SDS011;45700;50.930;5.168;2022-12-18T20:16:40;7.50;;;3.47;;
36575;SDS011;45700;50.930;5.168;2022-12-18T20:20:41;9.05;;;4.32;;
36575;SDS011;45700;50.930;5.168;2022-12-18T20:24:42;12.65;;;5.35;;
36575;SDS011;45700;50.930;5.168;2022-12-18T20:28:43;3.13;;;2.70;;
36575;SDS011;45700;50.930;5.168;2022-12-18T20:32:44;2.35;;;2.13;;
36575;SDS011;45700;50.930;5.168;2022-12-18T20:36:45;10.95;;;2.67;;
36575;SDS011;45700;50.930;5.168;2022-12-18T20:40:46;9.88;;;4.07;;
36575;SDS011;45700;50.930;5.168;2022-12-18T20:44:47;11.13;;;6.78;;
36575;SDS011;45700;50.930;5.168;2022-12-18T20:48:48;6.72;;;3.60;;
36575;SDS011;45700;50.930;5.168;2022-12-18T20:52:49;9.73;;;3.13;;
36575;SDS011;45700;50.930;5.168;2022-12-18T20:56:50;5.38;;;4.03;;
36575;SDS011;45700;50.930;5.168;2022-12-18T21:01:05;18.75;;;6.00;;
36575;SDS011;45700;50.930;5.168;2022-12-18T21:05:06;9.50;;;4.65;;
36575;SDS011;45700;50.930;5.168;2022-12-18T21:09:07;8.32;;;4.90;;
36575;SDS011;45700;50.930;5.168;2022-12-18T21:13:08;17.75;;;6.80;;
36575;SDS011;45700;50.930;5.168;2022-12-18T21:17:10;10.32;;;3.80;;
36575;SDS011;45700;50.930;5.168;2022-12-18T21:21:11;5.10;;;3.55;;
36575;SDS011;45700;50.930;5.168;2022-12-18T21:25:12;7.40;;;3.47;;
36575;SDS011;45700;50.930;5.168;2022-12-18T21:29:18;9.57;;;5.38;;
36575;SDS011;45700;50.930;5.168;2022-12-18T21:33:19;14.73;;;7.20;;
36575;SDS011;45700;50.930;5.168;2022-12-18T21:37:20;14.32;;;4.78;;
36575;SDS011;45700;50.930;5.168;2022-12-18T21:41:21;14.98;;;6.15;;
36575;SDS011;45700;50.930;5.168;2022-12-18T21:45:41;14.95;;;5.30;;
36575;SDS011;45700;50.930;5.168;2022-12-18T21:49:42;7.00;;;5.57;;
36575;SDS011;45700;50.930;5.168;2022-12-18T21:53:43;10.63;;;4.22;;
36575;SDS011;45700;50.930;5.168;2022-12-18T21:57:44;8.13;;;4.10;;
36575;SDS011;45700;50.930;5.168;2022-12-18T22:01:46;13.00;;;5.53;;
36575;SDS011;45700;50.930;5.168;2022-12-18T22:05:47;15.73;;;7.13;;
36575;SDS011;45700;50.930;5.168;2022-12-18T22:09:48;19.23;;;6.50;;
36575;SDS011;45700;50.930;5.168;2022-12-18T22:13:49;11.13;;;7.68;;
36575;SDS011;45700;50.930;5.168;2022-12-18T22:17:50;8.13;;;3.65;;
36575;SDS011;45700;50.930;5.168;2022-12-18T22:21:51;18.42;;;6.32;;
36575;SDS011;45700;50.930;5.168;2022-12-18T22:25:52;11.27;;;4.38;;
36575;SDS011;45700;50.930;5.168;2022-12-18T22:29:53;11.43;;;5.65;;
36575;SDS011;45700;50.930;5.168;2022-12-18T22:34:04;14.00;;;6.05;;
36575;SDS011;45700;50.930;5.168;2022-12-18T22:38:05;17.27;;;5.50;;
36575;SDS011;45700;50.930;5.168;2022-12-18T22:42:06;22.30;;;6.00;;
36575;SDS011;45700;50.930;5.168;2022-12-18T22:46:09;7.13;;;4.95;;
36575;SDS011;45700;50.930;5.168;2022-12-18T22:50:12;19.77;;;5.80;;
36575;SDS011;45700;50.930;5.168;2022-12-18T22:54:13;13.95;;;6.15;;
36575;SDS011;45700;50.930;5.168;2022-12-18T22:58:14;8.65;;;3.88;;
36575;SDS011;45700;50.930;5.168;2022-12-18T23:02:16;17.88;;;7.25;;
36575;SDS011;45700;50.930;5.168;2022-12-18T23:06:22;16.30;;;7.22;;
36575;SDS011;45700;50.930;5.168;2022-12-18T23:10:23;10.05;;;5.90;;
36575;SDS011;45700;50.930;5.168;2022-12-18T23:14:24;17.02;;;6.25;;
36575;SDS011;45700;50.930;5.168;2022-12-18T23:18:25;16.35;;;5.57;;
36575;SDS011;45700;50.930;5.168;2022-12-18T23:22:28;10.48;;;5.85;;
36575;SDS011;45700;50.930;5.168;2022-12-18T23:26:29;17.88;;;5.50;;
36575;SDS011;45700;50.930;5.168;2022-12-18T23:30:31;16.95;;;7.68;;
36575;SDS011;45700;50.930;5.168;2022-12-18T23:34:32;15.60;;;7.55;;
36575;SDS011;45700;50.930;5.168;2022-12-18T23:38:33;14.05;;;5.68;;
36575;SDS011;45700;50.930;5.168;2022-12-18T23:42:34;17.70;;;6.50;;
36575;SDS011;45700;50.930;5.168;2022-12-18T23:46:35;10.45;;;5.72;;
36575;SDS011;45700;50.930;5.168;2022-12-18T23:50:37;14.43;;;6.50;;
36575;SDS011;45700;50.930;5.168;2022-12-18T23:54:38;16.92;;;5.30;;
36575;SDS011;45700;50.930;5.168;2022-12-18T23:58:39;8.68;;;4.65;;
